sensor_id;sensor_type;location;lat;lon;timestamp;temperature;humidity
29547;DHT22;40782;47.264;11.330;2022-08-03T00:00:20;18.80;1.00
29547;DHT22;40782;47.264;11.330;2022-08-03T00:02:48;18.80;23.80
29547;DHT22;40782;47.264;11.330;2022-08-03T00:05:15;18.80;14.70
29547;DHT22;40782;47.264;11.330;2022-08-03T00:07:44;18.80;1.00
29547;DHT22;40782;47.264;11.330;2022-08-03T00:10:12;18.70;1.00
29547;DHT22;40782;47.264;11.330;2022-08-03T00:12:39;18.70;1.00
29547;DHT22;40782;47.264;11.330;2022-08-03T00:15:07;18.60;1.00
29547;DHT22;40782;47.264;11.330;2022-08-03T00:17:34;18.60;1.00
29547;DHT22;40782;47.264;11.330;2022-08-03T00:20:01;18.60;5.90
29547;DHT22;40782;47.264;11.330;2022-08-03T00:22:28;18.60;15.90
29547;DHT22;40782;47.264;11.330;2022-08-03T00:24:56;18.50;29.80
29547;DHT22;40782;47.264;11.330;2022-08-03T00:27:23;18.40;1.00
29547;DHT22;40782;47.264;11.330;2022-08-03T00:29:51;18.40;1.00
29547;DHT22;40782;47.264;11.330;2022-08-03T00:32:18;18.40;4.40
29547;DHT22;40782;47.264;11.330;2022-08-03T00:34:45;18.40;15.10
29547;DHT22;40782;47.264;11.330;2022-08-03T00:37:12;18.30;60.10
29547;DHT22;40782;47.264;11.330;2022-08-03T00:39:39;18.30;27.30
29547;DHT22;40782;47.264;11.330;2022-08-03T00:42:09;18.30;24.10
29547;DHT22;40782;47.264;11.330;2022-08-03T00:44:38;18.30;54.00
29547;DHT22;40782;47.264;11.330;2022-08-03T00:47:05;18.20;60.30
29547;DHT22;40782;47.264;11.330;2022-08-03T00:49:32;18.20;30.90
29547;DHT22;40782;47.264;11.330;2022-08-03T00:51:59;18.20;47.10
29547;DHT22;40782;47.264;11.330;2022-08-03T00:54:26;18.20;38.00
29547;DHT22;40782;47.264;11.330;2022-08-03T00:56:54;18.10;44.00
29547;DHT22;40782;47.264;11.330;2022-08-03T00:59:22;18.10;46.20
29547;DHT22;40782;47.264;11.330;2022-08-03T01:01:49;18.10;41.50
29547;DHT22;40782;47.264;11.330;2022-08-03T01:04:17;18.10;66.40
29547;DHT22;40782;47.264;11.330;2022-08-03T01:06:45;18.00;50.40
29547;DHT22;40782;47.264;11.330;2022-08-03T01:09:17;18.00;55.20
29547;DHT22;40782;47.264;11.330;2022-08-03T01:11:47;18.00;84.10
29547;DHT22;40782;47.264;11.330;2022-08-03T01:14:17;18.00;88.40
29547;DHT22;40782;47.264;11.330;2022-08-03T01:16:50;17.90;58.90
29547;DHT22;40782;47.264;11.330;2022-08-03T01:19:24;17.90;56.60
29547;DHT22;40782;47.264;11.330;2022-08-03T01:21:58;17.90;65.20
29547;DHT22;40782;47.264;11.330;2022-08-03T01:24:30;17.90;61.60
29547;DHT22;40782;47.264;11.330;2022-08-03T01:27:04;17.90;59.20
29547;DHT22;40782;47.264;11.330;2022-08-03T01:29:51;17.80;37.90
29547;DHT22;40782;47.264;11.330;2022-08-03T01:32:24;17.70;55.60
29547;DHT22;40782;47.264;11.330;2022-08-03T01:34:54;17.70;78.30
29547;DHT22;40782;47.264;11.330;2022-08-03T01:37:23;17.70;89.30
29547;DHT22;40782;47.264;11.330;2022-08-03T01:39:52;17.70;99.90
29547;DHT22;40782;47.264;11.330;2022-08-03T01:42:20;17.70;99.90
29547;DHT22;40782;47.264;11.330;2022-08-03T01:44:48;17.80;99.90
29547;DHT22;40782;47.264;11.330;2022-08-03T01:47:19;17.80;99.90
29547;DHT22;40782;47.264;11.330;2022-08-03T01:49:46;17.80;99.90
29547;DHT22;40782;47.264;11.330;2022-08-03T01:52:15;17.80;99.90
29547;DHT22;40782;47.264;11.330;2022-08-03T01:54:44;17.80;99.90
29547;DHT22;40782;47.264;11.330;2022-08-03T01:57:12;17.70;99.90
29547;DHT22;40782;47.264;11.330;2022-08-03T01:59:40;17.70;95.00
29547;DHT22;40782;47.264;11.330;2022-08-03T02:02:07;17.60;96.60
29547;DHT22;40782;47.264;11.330;2022-08-03T02:04:39;17.60;99.90
29547;DHT22;40782;47.264;11.330;2022-08-03T02:07:07;17.60;99.90
29547;DHT22;40782;47.264;11.330;2022-08-03T02:09:36;17.60;90.10
29547;DHT22;40782;47.264;11.330;2022-08-03T02:12:06;17.50;69.80
29547;DHT22;40782;47.264;11.330;2022-08-03T02:14:33;17.40;73.30
29547;DHT22;40782;47.264;11.330;2022-08-03T02:17:01;17.30;78.70
29547;DHT22;40782;47.264;11.330;2022-08-03T02:19:28;17.30;99.90
29547;DHT22;40782;47.264;11.330;2022-08-03T02:21:57;17.40;99.90
29547;DHT22;40782;47.264;11.330;2022-08-03T02:24:25;17.40;99.90
29547;DHT22;40782;47.264;11.330;2022-08-03T02:26:52;17.40;99.90
29547;DHT22;40782;47.264;11.330;2022-08-03T02:29:20;17.40;99.90
29547;DHT22;40782;47.264;11.330;2022-08-03T02:31:48;17.40;99.90
29547;DHT22;40782;47.264;11.330;2022-08-03T02:34:16;17.40;99.90
29547;DHT22;40782;47.264;11.330;2022-08-03T02:36:45;17.30;99.90
29547;DHT22;40782;47.264;11.330;2022-08-03T02:39:15;17.30;99.90
29547;DHT22;40782;47.264;11.330;2022-08-03T02:41:44;17.30;99.90
29547;DHT22;40782;47.264;11.330;2022-08-03T02:44:11;17.30;99.90
29547;DHT22;40782;47.264;11.330;2022-08-03T02:46:40;17.30;99.90
29547;DHT22;40782;47.264;11.330;2022-08-03T02:49:09;17.20;99.90
29547;DHT22;40782;47.264;11.330;2022-08-03T02:51:37;17.20;99.90
29547;DHT22;40782;47.264;11.330;2022-08-03T02:54:05;17.20;99.90
29547;DHT22;40782;47.264;11.330;2022-08-03T02:56:35;17.20;99.90
29547;DHT22;40782;47.264;11.330;2022-08-03T02:59:02;17.20;99.90
29547;DHT22;40782;47.264;11.330;2022-08-03T03:01:30;17.20;99.90
29547;DHT22;40782;47.264;11.330;2022-08-03T03:03:57;17.10;99.90
29547;DHT22;40782;47.264;11.330;2022-08-03T03:06:25;17.10;99.90
29547;DHT22;40782;47.264;11.330;2022-08-03T03:08:54;17.10;99.90
29547;DHT22;40782;47.264;11.330;2022-08-03T03:11:22;17.10;99.90
29547;DHT22;40782;47.264;11.330;2022-08-03T03:13:52;17.00;99.90
29547;DHT22;40782;47.264;11.330;2022-08-03T03:16:20;16.90;99.90
29547;DHT22;40782;47.264;11.330;2022-08-03T03:18:48;16.90;99.90
29547;DHT22;40782;47.264;11.330;2022-08-03T03:21:15;16.90;99.90
29547;DHT22;40782;47.264;11.330;2022-08-03T03:23:43;16.90;99.90
29547;DHT22;40782;47.264;11.330;2022-08-03T03:26:11;16.90;99.90
29547;DHT22;40782;47.264;11.330;2022-08-03T03:28:39;17.00;99.90
29547;DHT22;40782;47.264;11.330;2022-08-03T03:31:08;17.00;99.90
29547;DHT22;40782;47.264;11.330;2022-08-03T03:33:35;16.90;99.90
29547;DHT22;40782;47.264;11.330;2022-08-03T03:36:03;16.90;99.90
29547;DHT22;40782;47.264;11.330;2022-08-03T03:38:31;16.90;99.90
29547;DHT22;40782;47.264;11.330;2022-08-03T03:40:58;16.90;99.90
29547;DHT22;40782;47.264;11.330;2022-08-03T03:43:26;16.90;99.90
29547;DHT22;40782;47.264;11.330;2022-08-03T03:45:54;16.70;99.90
29547;DHT22;40782;47.264;11.330;2022-08-03T03:48:24;16.70;99.90
29547;DHT22;40782;47.264;11.330;2022-08-03T03:50:52;16.70;99.90
29547;DHT22;40782;47.264;11.330;2022-08-03T03:53:19;16.70;99.90
29547;DHT22;40782;47.264;11.330;2022-08-03T03:55:46;16.70;99.90
29547;DHT22;40782;47.264;11.330;2022-08-03T03:58:13;16.60;99.90
29547;DHT22;40782;47.264;11.330;2022-08-03T04:00:40;16.60;99.90
29547;DHT22;40782;47.264;11.330;2022-08-03T04:03:09;16.60;99.90
29547;DHT22;40782;47.264;11.330;2022-08-03T04:05:38;16.60;99.90
29547;DHT22;40782;47.264;11.330;2022-08-03T04:08:28;16.60;99.90
29547;DHT22;40782;47.264;11.330;2022-08-03T04:11:13;16.60;99.90
29547;DHT22;40782;47.264;11.330;2022-08-03T04:13:43;16.50;99.90
29547;DHT22;40782;47.264;11.330;2022-08-03T04:16:11;16.50;99.90
29547;DHT22;40782;47.264;11.330;2022-08-03T04:18:39;16.50;99.90
29547;DHT22;40782;47.264;11.330;2022-08-03T04:21:09;16.50;99.90
29547;DHT22;40782;47.264;11.330;2022-08-03T04:23:37;16.50;99.90
29547;DHT22;40782;47.264;11.330;2022-08-03T04:26:06;16.50;99.90
29547;DHT22;40782;47.264;11.330;2022-08-03T04:28:34;16.50;99.90
29547;DHT22;40782;47.264;11.330;2022-08-03T04:31:02;16.50;99.90
29547;DHT22;40782;47.264;11.330;2022-08-03T04:33:29;16.50;99.90
29547;DHT22;40782;47.264;11.330;2022-08-03T04:35:58;16.50;99.90
29547;DHT22;40782;47.264;11.330;2022-08-03T04:38:27;16.60;99.90
29547;DHT22;40782;47.264;11.330;2022-08-03T04:40:54;16.60;99.90
29547;DHT22;40782;47.264;11.330;2022-08-03T04:43:22;16.50;99.90
29547;DHT22;40782;47.264;11.330;2022-08-03T04:45:49;16.50;99.90
29547;DHT22;40782;47.264;11.330;2022-08-03T04:48:17;16.60;99.90
29547;DHT22;40782;47.264;11.330;2022-08-03T04:50:44;16.60;99.90
29547;DHT22;40782;47.264;11.330;2022-08-03T04:53:12;16.60;99.90
29547;DHT22;40782;47.264;11.330;2022-08-03T04:55:40;16.60;99.90
29547;DHT22;40782;47.264;11.330;2022-08-03T04:58:07;16.60;99.90
29547;DHT22;40782;47.264;11.330;2022-08-03T05:00:34;16.60;99.90
29547;DHT22;40782;47.264;11.330;2022-08-03T05:03:01;16.60;99.90
29547;DHT22;40782;47.264;11.330;2022-08-03T05:05:28;16.70;99.90
29547;DHT22;40782;47.264;11.330;2022-08-03T05:07:55;16.70;99.90
29547;DHT22;40782;47.264;11.330;2022-08-03T05:10:22;16.70;99.90
29547;DHT22;40782;47.264;11.330;2022-08-03T05:12:50;16.70;99.90
29547;DHT22;40782;47.264;11.330;2022-08-03T05:15:18;16.70;99.90
29547;DHT22;40782;47.264;11.330;2022-08-03T05:17:45;16.80;99.90
29547;DHT22;40782;47.264;11.330;2022-08-03T05:20:12;16.80;99.90
29547;DHT22;40782;47.264;11.330;2022-08-03T05:22:38;16.90;99.90
29547;DHT22;40782;47.264;11.330;2022-08-03T05:25:06;16.90;99.90
29547;DHT22;40782;47.264;11.330;2022-08-03T05:27:33;16.90;99.90
29547;DHT22;40782;47.264;11.330;2022-08-03T05:30:02;17.00;99.90
29547;DHT22;40782;47.264;11.330;2022-08-03T05:32:29;17.00;99.90
29547;DHT22;40782;47.264;11.330;2022-08-03T05:34:56;17.00;99.90
29547;DHT22;40782;47.264;11.330;2022-08-03T05:37:23;17.00;97.30
29547;DHT22;40782;47.264;11.330;2022-08-03T05:39:50;17.10;99.10
29547;DHT22;40782;47.264;11.330;2022-08-03T05:42:17;17.10;95.50
29547;DHT22;40782;47.264;11.330;2022-08-03T05:44:44;17.10;79.40
29547;DHT22;40782;47.264;11.330;2022-08-03T05:47:12;17.20;90.10
29547;DHT22;40782;47.264;11.330;2022-08-03T05:49:39;17.20;84.50
29547;DHT22;40782;47.264;11.330;2022-08-03T05:52:06;17.20;97.30
29547;DHT22;40782;47.264;11.330;2022-08-03T05:54:33;17.20;93.70
29547;DHT22;40782;47.264;11.330;2022-08-03T05:57:00;17.20;90.90
29547;DHT22;40782;47.264;11.330;2022-08-03T05:59:27;17.30;89.00
29547;DHT22;40782;47.264;11.330;2022-08-03T06:01:54;17.30;81.70
29547;DHT22;40782;47.264;11.330;2022-08-03T06:04:22;17.40;99.90
29547;DHT22;40782;47.264;11.330;2022-08-03T06:06:49;17.40;97.40
29547;DHT22;40782;47.264;11.330;2022-08-03T06:09:16;17.40;81.30
29547;DHT22;40782;47.264;11.330;2022-08-03T06:11:43;17.40;82.20
29547;DHT22;40782;47.264;11.330;2022-08-03T06:14:10;17.50;84.10
29547;DHT22;40782;47.264;11.330;2022-08-03T06:16:37;17.50;92.70
29547;DHT22;40782;47.264;11.330;2022-08-03T06:19:04;17.50;91.90
29547;DHT22;40782;47.264;11.330;2022-08-03T06:21:32;17.60;97.90
29547;DHT22;40782;47.264;11.330;2022-08-03T06:23:59;17.70;48.60
29547;DHT22;40782;47.264;11.330;2022-08-03T06:26:26;17.70;50.00
29547;DHT22;40782;47.264;11.330;2022-08-03T06:28:53;17.80;19.70
29547;DHT22;40782;47.264;11.330;2022-08-03T06:31:21;17.90;41.90
29547;DHT22;40782;47.264;11.330;2022-08-03T06:33:48;17.90;40.30
29547;DHT22;40782;47.264;11.330;2022-08-03T06:36:15;18.00;41.70
29547;DHT22;40782;47.264;11.330;2022-08-03T06:38:43;18.10;34.60
29547;DHT22;40782;47.264;11.330;2022-08-03T06:41:10;18.20;5.90
29547;DHT22;40782;47.264;11.330;2022-08-03T06:43:37;18.30;1.00
29547;DHT22;40782;47.264;11.330;2022-08-03T06:46:04;18.30;1.00
29547;DHT22;40782;47.264;11.330;2022-08-03T06:48:31;18.40;1.00
29547;DHT22;40782;47.264;11.330;2022-08-03T06:50:58;18.50;1.00
29547;DHT22;40782;47.264;11.330;2022-08-03T06:53:25;18.50;1.00
29547;DHT22;40782;47.264;11.330;2022-08-03T06:55:53;18.60;1.00
29547;DHT22;40782;47.264;11.330;2022-08-03T06:58:20;18.60;1.00
29547;DHT22;40782;47.264;11.330;2022-08-03T07:00:47;18.70;1.00
29547;DHT22;40782;47.264;11.330;2022-08-03T07:03:14;18.80;1.00
29547;DHT22;40782;47.264;11.330;2022-08-03T07:05:41;18.90;1.00
29547;DHT22;40782;47.264;11.330;2022-08-03T07:08:10;19.00;1.00
29547;DHT22;40782;47.264;11.330;2022-08-03T07:10:37;19.00;99.90
29547;DHT22;40782;47.264;11.330;2022-08-03T07:13:06;19.10;1.00
29547;DHT22;40782;47.264;11.330;2022-08-03T07:15:33;19.20;99.90
29547;DHT22;40782;47.264;11.330;2022-08-03T07:18:00;19.30;1.00
29547;DHT22;40782;47.264;11.330;2022-08-03T07:20:27;19.40;1.00
29547;DHT22;40782;47.264;11.330;2022-08-03T07:22:53;19.50;1.00
29547;DHT22;40782;47.264;11.330;2022-08-03T07:25:21;19.60;99.90
29547;DHT22;40782;47.264;11.330;2022-08-03T07:27:48;19.70;1.00
29547;DHT22;40782;47.264;11.330;2022-08-03T07:30:16;19.80;1.00
29547;DHT22;40782;47.264;11.330;2022-08-03T07:32:43;19.90;99.90
29547;DHT22;40782;47.264;11.330;2022-08-03T07:35:10;20.00;1.00
29547;DHT22;40782;47.264;11.330;2022-08-03T07:37:37;20.10;99.90
29547;DHT22;40782;47.264;11.330;2022-08-03T07:40:04;20.10;1.00
29547;DHT22;40782;47.264;11.330;2022-08-03T07:42:31;20.20;99.90
29547;DHT22;40782;47.264;11.330;2022-08-03T07:44:58;20.30;1.00
29547;DHT22;40782;47.264;11.330;2022-08-03T07:47:27;20.40;1.00
29547;DHT22;40782;47.264;11.330;2022-08-03T07:49:55;20.50;99.90
29547;DHT22;40782;47.264;11.330;2022-08-03T07:52:22;20.60;1.00
29547;DHT22;40782;47.264;11.330;2022-08-03T07:55:14;20.60;99.90
29547;DHT22;40782;47.264;11.330;2022-08-03T07:57:42;20.70;1.00
29547;DHT22;40782;47.264;11.330;2022-08-03T08:00:12;20.80;99.90
29547;DHT22;40782;47.264;11.330;2022-08-03T08:02:41;20.90;99.90
29547;DHT22;40782;47.264;11.330;2022-08-03T08:05:08;21.00;1.00
29547;DHT22;40782;47.264;11.330;2022-08-03T08:07:35;21.00;99.90
29547;DHT22;40782;47.264;11.330;2022-08-03T08:10:04;21.10;99.90
29547;DHT22;40782;47.264;11.330;2022-08-03T08:12:31;21.20;1.00
29547;DHT22;40782;47.264;11.330;2022-08-03T08:14:58;21.30;99.90
29547;DHT22;40782;47.264;11.330;2022-08-03T08:17:25;21.40;1.00
29547;DHT22;40782;47.264;11.330;2022-08-03T08:19:54;21.50;99.90
29547;DHT22;40782;47.264;11.330;2022-08-03T08:22:20;21.60;1.00
29547;DHT22;40782;47.264;11.330;2022-08-03T08:24:47;21.80;1.00
29547;DHT22;40782;47.264;11.330;2022-08-03T08:27:14;21.80;1.00
29547;DHT22;40782;47.264;11.330;2022-08-03T08:29:41;22.00;1.00
29547;DHT22;40782;47.264;11.330;2022-08-03T08:32:08;22.00;1.00
29547;DHT22;40782;47.264;11.330;2022-08-03T08:34:37;22.20;1.00
29547;DHT22;40782;47.264;11.330;2022-08-03T08:37:05;22.20;1.00
29547;DHT22;40782;47.264;11.330;2022-08-03T08:39:32;22.30;99.90
29547;DHT22;40782;47.264;11.330;2022-08-03T08:41:59;22.40;1.00
29547;DHT22;40782;47.264;11.330;2022-08-03T08:44:26;22.50;1.00
29547;DHT22;40782;47.264;11.330;2022-08-03T08:46:54;22.60;1.00
29547;DHT22;40782;47.264;11.330;2022-08-03T08:49:22;22.70;1.00
29547;DHT22;40782;47.264;11.330;2022-08-03T08:51:52;22.80;1.00
29547;DHT22;40782;47.264;11.330;2022-08-03T08:54:22;22.90;99.90
29547;DHT22;40782;47.264;11.330;2022-08-03T08:56:49;22.90;98.40
29547;DHT22;40782;47.264;11.330;2022-08-03T08:59:17;22.90;1.00
29547;DHT22;40782;47.264;11.330;2022-08-03T09:01:44;23.00;1.00
29547;DHT22;40782;47.264;11.330;2022-08-03T09:04:10;23.10;1.00
29547;DHT22;40782;47.264;11.330;2022-08-03T09:06:37;23.20;1.00
29547;DHT22;40782;47.264;11.330;2022-08-03T09:09:05;23.30;1.00
29547;DHT22;40782;47.264;11.330;2022-08-03T09:11:33;23.40;1.00
29547;DHT22;40782;47.264;11.330;2022-08-03T09:14:00;23.50;99.90
29547;DHT22;40782;47.264;11.330;2022-08-03T09:16:27;23.60;1.00
29547;DHT22;40782;47.264;11.330;2022-08-03T09:18:54;23.70;1.00
29547;DHT22;40782;47.264;11.330;2022-08-03T09:21:21;23.90;99.90
29547;DHT22;40782;47.264;11.330;2022-08-03T09:23:49;23.90;99.90
29547;DHT22;40782;47.264;11.330;2022-08-03T09:26:20;23.90;99.90
29547;DHT22;40782;47.264;11.330;2022-08-03T09:28:54;24.00;99.90
29547;DHT22;40782;47.264;11.330;2022-08-03T09:31:31;24.10;1.00
29547;DHT22;40782;47.264;11.330;2022-08-03T09:34:02;24.10;18.70
29547;DHT22;40782;47.264;11.330;2022-08-03T09:36:33;24.20;99.90
29547;DHT22;40782;47.264;11.330;2022-08-03T09:39:00;24.30;99.90
29547;DHT22;40782;47.264;11.330;2022-08-03T09:41:28;24.40;19.20
29547;DHT22;40782;47.264;11.330;2022-08-03T09:43:57;24.40;1.00
29547;DHT22;40782;47.264;11.330;2022-08-03T09:46:24;24.60;1.00
29547;DHT22;40782;47.264;11.330;2022-08-03T09:48:52;24.70;1.00
29547;DHT22;40782;47.264;11.330;2022-08-03T09:51:23;24.70;1.00
29547;DHT22;40782;47.264;11.330;2022-08-03T09:53:50;24.80;1.00
29547;DHT22;40782;47.264;11.330;2022-08-03T09:56:17;24.90;1.00
29547;DHT22;40782;47.264;11.330;2022-08-03T09:58:44;25.00;1.00
29547;DHT22;40782;47.264;11.330;2022-08-03T10:01:13;25.20;1.00
29547;DHT22;40782;47.264;11.330;2022-08-03T10:03:39;25.30;1.00
29547;DHT22;40782;47.264;11.330;2022-08-03T10:06:13;25.50;1.00
29547;DHT22;40782;47.264;11.330;2022-08-03T10:08:40;25.60;1.00
29547;DHT22;40782;47.264;11.330;2022-08-03T10:11:07;25.70;1.00
29547;DHT22;40782;47.264;11.330;2022-08-03T10:13:34;25.80;1.00
29547;DHT22;40782;47.264;11.330;2022-08-03T10:16:02;25.80;1.00
29547;DHT22;40782;47.264;11.330;2022-08-03T10:18:32;25.90;1.00
29547;DHT22;40782;47.264;11.330;2022-08-03T10:21:01;26.00;1.00
29547;DHT22;40782;47.264;11.330;2022-08-03T10:23:29;26.00;1.00
29547;DHT22;40782;47.264;11.330;2022-08-03T10:26:01;26.10;1.00
29547;DHT22;40782;47.264;11.330;2022-08-03T10:28:31;26.20;1.00
29547;DHT22;40782;47.264;11.330;2022-08-03T10:31:00;26.30;1.00
29547;DHT22;40782;47.264;11.330;2022-08-03T10:33:29;26.40;1.00
29547;DHT22;40782;47.264;11.330;2022-08-03T10:35:59;26.50;1.00
29547;DHT22;40782;47.264;11.330;2022-08-03T10:38:28;26.60;1.00
29547;DHT22;40782;47.264;11.330;2022-08-03T10:40:57;26.70;1.00
29547;DHT22;40782;47.264;11.330;2022-08-03T10:43:25;26.80;1.00
29547;DHT22;40782;47.264;11.330;2022-08-03T10:45:53;27.00;1.00
29547;DHT22;40782;47.264;11.330;2022-08-03T10:48:21;27.10;1.00
29547;DHT22;40782;47.264;11.330;2022-08-03T10:50:48;27.20;1.00
29547;DHT22;40782;47.264;11.330;2022-08-03T10:53:18;27.40;1.00
29547;DHT22;40782;47.264;11.330;2022-08-03T10:55:59;27.40;1.00
29547;DHT22;40782;47.264;11.330;2022-08-03T10:58:47;27.60;1.00
29547;DHT22;40782;47.264;11.330;2022-08-03T11:01:18;27.70;1.00
29547;DHT22;40782;47.264;11.330;2022-08-03T11:06:30;27.90;1.00
29547;DHT22;40782;47.264;11.330;2022-08-03T11:11:50;28.00;1.00
29547;DHT22;40782;47.264;11.330;2022-08-03T11:14:19;28.20;1.00
29547;DHT22;40782;47.264;11.330;2022-08-03T11:16:47;28.30;1.00
29547;DHT22;40782;47.264;11.330;2022-08-03T11:19:15;28.30;1.00
29547;DHT22;40782;47.264;11.330;2022-08-03T11:21:54;28.50;1.00
29547;DHT22;40782;47.264;11.330;2022-08-03T11:27:18;28.60;1.00
29547;DHT22;40782;47.264;11.330;2022-08-03T11:29:53;28.80;1.00
29547;DHT22;40782;47.264;11.330;2022-08-03T11:35:08;28.90;1.00
29547;DHT22;40782;47.264;11.330;2022-08-03T11:37:36;29.00;99.90
29547;DHT22;40782;47.264;11.330;2022-08-03T11:40:33;29.00;99.90
29547;DHT22;40782;47.264;11.330;2022-08-03T11:43:01;29.00;1.00
29547;DHT22;40782;47.264;11.330;2022-08-03T11:45:28;29.10;99.90
29547;DHT22;40782;47.264;11.330;2022-08-03T11:47:55;29.20;99.90
29547;DHT22;40782;47.264;11.330;2022-08-03T11:50:23;29.30;99.90
29547;DHT22;40782;47.264;11.330;2022-08-03T11:52:50;29.40;99.90
29547;DHT22;40782;47.264;11.330;2022-08-03T11:55:18;29.50;1.00
29547;DHT22;40782;47.264;11.330;2022-08-03T11:57:47;29.60;99.90
29547;DHT22;40782;47.264;11.330;2022-08-03T12:00:21;29.70;1.00
29547;DHT22;40782;47.264;11.330;2022-08-03T12:03:02;29.80;1.00
29547;DHT22;40782;47.264;11.330;2022-08-03T12:05:33;29.90;99.90
29547;DHT22;40782;47.264;11.330;2022-08-03T12:08:00;29.90;99.90
29547;DHT22;40782;47.264;11.330;2022-08-03T12:10:27;29.90;99.90
29547;DHT22;40782;47.264;11.330;2022-08-03T12:12:55;30.00;99.90
29547;DHT22;40782;47.264;11.330;2022-08-03T12:15:24;30.00;99.90
29547;DHT22;40782;47.264;11.330;2022-08-03T12:17:51;30.10;99.90
29547;DHT22;40782;47.264;11.330;2022-08-03T12:20:20;30.20;99.90
29547;DHT22;40782;47.264;11.330;2022-08-03T12:22:47;30.30;99.90
29547;DHT22;40782;47.264;11.330;2022-08-03T12:25:19;30.40;99.90
29547;DHT22;40782;47.264;11.330;2022-08-03T12:27:46;30.40;99.90
29547;DHT22;40782;47.264;11.330;2022-08-03T12:30:15;30.50;99.90
29547;DHT22;40782;47.264;11.330;2022-08-03T12:32:42;30.60;99.90
29547;DHT22;40782;47.264;11.330;2022-08-03T12:35:09;30.70;99.90
29547;DHT22;40782;47.264;11.330;2022-08-03T12:37:36;30.80;99.90
29547;DHT22;40782;47.264;11.330;2022-08-03T12:40:03;30.80;99.90
29547;DHT22;40782;47.264;11.330;2022-08-03T12:42:31;30.90;99.90
29547;DHT22;40782;47.264;11.330;2022-08-03T12:44:58;30.90;99.90
29547;DHT22;40782;47.264;11.330;2022-08-03T12:47:27;31.00;99.90
29547;DHT22;40782;47.264;11.330;2022-08-03T12:49:53;31.00;99.90
29547;DHT22;40782;47.264;11.330;2022-08-03T12:52:21;31.10;99.90
29547;DHT22;40782;47.264;11.330;2022-08-03T12:54:54;31.20;99.90
29547;DHT22;40782;47.264;11.330;2022-08-03T12:57:22;31.20;99.90
29547;DHT22;40782;47.264;11.330;2022-08-03T12:59:49;31.30;99.90
29547;DHT22;40782;47.264;11.330;2022-08-03T13:02:20;31.40;99.90
29547;DHT22;40782;47.264;11.330;2022-08-03T13:04:49;31.40;99.90
29547;DHT22;40782;47.264;11.330;2022-08-03T13:07:16;31.50;99.90
29547;DHT22;40782;47.264;11.330;2022-08-03T13:09:44;31.60;99.90
29547;DHT22;40782;47.264;11.330;2022-08-03T13:12:12;31.60;99.90
29547;DHT22;40782;47.264;11.330;2022-08-03T13:14:39;31.70;99.90
29547;DHT22;40782;47.264;11.330;2022-08-03T13:17:06;31.80;99.90
29547;DHT22;40782;47.264;11.330;2022-08-03T13:19:33;31.90;99.90
29547;DHT22;40782;47.264;11.330;2022-08-03T13:22:06;32.00;99.90
29547;DHT22;40782;47.264;11.330;2022-08-03T13:24:36;32.10;99.90
29547;DHT22;40782;47.264;11.330;2022-08-03T13:27:03;32.10;99.90
29547;DHT22;40782;47.264;11.330;2022-08-03T13:29:31;32.30;99.90
29547;DHT22;40782;47.264;11.330;2022-08-03T13:31:58;32.50;99.90
29547;DHT22;40782;47.264;11.330;2022-08-03T13:34:25;32.70;99.90
29547;DHT22;40782;47.264;11.330;2022-08-03T13:36:52;32.90;99.90
29547;DHT22;40782;47.264;11.330;2022-08-03T13:39:21;33.10;99.90
29547;DHT22;40782;47.264;11.330;2022-08-03T13:41:48;33.40;99.90
29547;DHT22;40782;47.264;11.330;2022-08-03T13:44:15;33.70;99.90
29547;DHT22;40782;47.264;11.330;2022-08-03T13:46:43;34.20;99.90
29547;DHT22;40782;47.264;11.330;2022-08-03T13:49:10;34.70;99.90
29547;DHT22;40782;47.264;11.330;2022-08-03T13:51:37;35.20;99.90
29547;DHT22;40782;47.264;11.330;2022-08-03T13:54:04;35.80;99.90
29547;DHT22;40782;47.264;11.330;2022-08-03T13:56:33;36.20;99.90
29547;DHT22;40782;47.264;11.330;2022-08-03T13:58:59;36.70;99.90
29547;DHT22;40782;47.264;11.330;2022-08-03T14:01:27;37.10;83.30
29547;DHT22;40782;47.264;11.330;2022-08-03T14:03:53;37.50;75.10
29547;DHT22;40782;47.264;11.330;2022-08-03T14:06:23;37.80;79.70
29547;DHT22;40782;47.264;11.330;2022-08-03T14:08:50;38.00;39.60
29547;DHT22;40782;47.264;11.330;2022-08-03T14:11:17;38.20;24.80
29547;DHT22;40782;47.264;11.330;2022-08-03T14:13:45;38.50;18.40
29547;DHT22;40782;47.264;11.330;2022-08-03T14:16:12;38.80;17.80
29547;DHT22;40782;47.264;11.330;2022-08-03T14:18:39;39.00;1.00
29547;DHT22;40782;47.264;11.330;2022-08-03T14:21:06;39.00;1.00
29547;DHT22;40782;47.264;11.330;2022-08-03T14:23:34;39.10;1.00
29547;DHT22;40782;47.264;11.330;2022-08-03T14:26:01;39.30;1.00
29547;DHT22;40782;47.264;11.330;2022-08-03T14:28:28;39.40;1.00
29547;DHT22;40782;47.264;11.330;2022-08-03T14:30:57;39.70;1.00
29547;DHT22;40782;47.264;11.330;2022-08-03T14:33:24;39.80;1.00
29547;DHT22;40782;47.264;11.330;2022-08-03T14:35:52;40.00;1.00
29547;DHT22;40782;47.264;11.330;2022-08-03T14:38:20;40.20;1.00
29547;DHT22;40782;47.264;11.330;2022-08-03T14:40:47;40.10;1.00
29547;DHT22;40782;47.264;11.330;2022-08-03T14:43:14;40.00;1.00
29547;DHT22;40782;47.264;11.330;2022-08-03T14:45:42;40.00;1.00
29547;DHT22;40782;47.264;11.330;2022-08-03T14:48:10;40.30;1.00
29547;DHT22;40782;47.264;11.330;2022-08-03T14:50:37;40.30;1.00
29547;DHT22;40782;47.264;11.330;2022-08-03T14:53:04;40.50;1.00
29547;DHT22;40782;47.264;11.330;2022-08-03T14:55:31;40.50;1.00
29547;DHT22;40782;47.264;11.330;2022-08-03T14:57:58;40.50;1.00
29547;DHT22;40782;47.264;11.330;2022-08-03T15:00:30;40.50;1.00
29547;DHT22;40782;47.264;11.330;2022-08-03T15:02:57;40.50;1.00
29547;DHT22;40782;47.264;11.330;2022-08-03T15:05:25;40.70;1.00
29547;DHT22;40782;47.264;11.330;2022-08-03T15:07:52;40.70;1.00
29547;DHT22;40782;47.264;11.330;2022-08-03T15:10:19;40.70;1.00
29547;DHT22;40782;47.264;11.330;2022-08-03T15:12:45;40.70;1.00
29547;DHT22;40782;47.264;11.330;2022-08-03T15:15:13;40.70;1.00
29547;DHT22;40782;47.264;11.330;2022-08-03T15:17:39;40.90;1.00
29547;DHT22;40782;47.264;11.330;2022-08-03T15:20:07;40.90;1.00
29547;DHT22;40782;47.264;11.330;2022-08-03T15:22:37;40.90;1.00
29547;DHT22;40782;47.264;11.330;2022-08-03T15:25:04;40.90;1.00
29547;DHT22;40782;47.264;11.330;2022-08-03T15:27:31;40.90;1.00
29547;DHT22;40782;47.264;11.330;2022-08-03T15:29:58;41.00;1.00
29547;DHT22;40782;47.264;11.330;2022-08-03T15:32:25;41.10;1.00
29547;DHT22;40782;47.264;11.330;2022-08-03T15:34:52;41.10;1.00
29547;DHT22;40782;47.264;11.330;2022-08-03T15:37:20;41.00;1.00
29547;DHT22;40782;47.264;11.330;2022-08-03T15:39:51;41.20;1.00